Snowbird, UT

10:51 AM MST on December 28, 2014 (GMT -0700)
Granite Hollow | Change Station
CLOSE
Current Station
Personal Weather Station
Location: Sandy, UT
Elevation: 5030 ft
Nearby Weather Stations
Active Advisory: Winter Storm Warning

Elev 5030 ft 40.57 °N, 111.82 °W | Updated 20 seconds ago

Snow
Snow
30.0 °F
Feels Like 30 °F
N
0.0
Wind Variable Wind from ESE
Gusts 2.0 mph

Today
High -- | Low -- °F
--% Chance of Precip.
Yesterday
High -- | Low -- °F
Precip. -- in
7:50 AM 5:07 PM
Waxing Crescent, 50% visible
Pressure 30.12 in
Visibility 9.0 miles
Clouds Few 3000 ft
Mostly Cloudy 5500 ft
Overcast 7000 ft
Windchill 30 °F
Dew Point 22 °F
Humidity 73%
Rainfall 0.00 in
Snow Depth Not available.
UV 0 out of 12
Pollen .10 out of 12
Air Quality Not available.
Flu Activity Not available.
METAR KSLC 281653Z 14012KT 9SM -SN FEW030 BKN055 OVC070 M02/M08 A3006 RMK AO2 SLP200 P0000 T10171078

More Conditions Fewer Conditions

Pressure 30.12 in
Visibility 9.0 miles
Clouds Few 3000 ft
Mostly Cloudy 5500 ft
Overcast 7000 ft
Windchill 30 °F
Dew Point 22 °F
Humidity 73%
Rainfall 0.00 in
Snow Depth Not available.
UV 0 out of 12
Pollen .10 out of 12
Air Quality Not available.
Flu Activity Not available.
METAR KSLC 281653Z 14012KT 9SM -SN FEW030 BKN055 OVC070 M02/M08 A3006 RMK AO2 SLP200 P0000 T10171078

More Conditions Fewer Conditions

10-Day Weather Forecast

Almanac

Astronomy

Dec. 28, 2014 Rise Set
Actual Time
Civil Twilight
Nautical Twilight
Astronomical Twilight
Moon
Length of Visible Light
Length of Day
Tomorrow will be .
, % of the Moon is Illuminated

Today's Extremes

State Highs State Lows

Community

WunderPhotos

Upload Photos

1,781,367 photos uploaded!

WunderBlogs® & News

Nearby

Air Quality

  Air Quality AQ Index Pollutant
Not available.

Snow Depth

Station Depth Elevation

Earthquake Activity

City Distance Mag. Time & Date
Minimum magnitude displayed is 2.5.

Coastal Water Temperatures

Place Temperature

Nearby Weather Stations